Time;durP1;ratioP1;P1;durP2;ratioP2;P2;SDS_P1;SDS_P2;PMS_P1;PMS_P2;Temp;Humidity;BMP_temperature;BMP_pressure;BME280_temperature;BME280_humidity;BME280_pressure;Samples;Min_cycle;Max_cycle;Signal;HPM_P1;HPM_P2
2023/12/03 00:00:07;;;;;;;25.20;16.67;;;;;;;;;;5065637;28;20251;-65
2023/12/03 00:02:35;;;;;;;27.03;16.97;;;;;;;;;;5063495;28;20205;-65
2023/12/03 00:05:02;;;;;;;24.90;16.80;;;;;;;;;;5066652;28;20209;-66
2023/12/03 00:07:31;;;;;;;25.57;17.23;;;;;;;;;;5065510;28;20316;-65
2023/12/03 00:09:58;;;;;;;25.70;16.87;;;;;;;;;;5064652;28;20208;-65
2023/12/03 00:12:25;;;;;;;27.53;17.23;;;;;;;;;;5066154;28;20220;-66
2023/12/03 00:14:52;;;;;;;26.83;18.17;;;;;;;;;;5069665;28;20204;-65
2023/12/03 00:17:19;;;;;;;25.83;17.27;;;;;;;;;;5066176;28;20194;-65
2023/12/03 00:19:46;;;;;;;23.17;16.00;;;;;;;;;;5067975;28;20204;-65
2023/12/03 00:22:14;;;;;;;24.87;16.83;;;;;;;;;;5066824;28;20205;-65
2023/12/03 00:24:42;;;;;;;26.13;16.77;;;;;;;;;;5073793;28;20205;-65
2023/12/03 00:27:09;;;;;;;25.67;15.90;;;;;;;;;;5070357;28;20222;-65
2023/12/03 00:29:36;;;;;;;27.00;17.23;;;;;;;;;;5074305;28;20213;-65
2023/12/03 00:32:03;;;;;;;24.33;16.30;;;;;;;;;;5072009;28;20202;-65
2023/12/03 00:34:31;;;;;;;26.27;17.07;;;;;;;;;;5072698;28;20209;-65
2023/12/03 00:36:58;;;;;;;27.17;17.63;;;;;;;;;;5068829;28;20210;-65
2023/12/03 00:39:25;;;;;;;25.90;17.60;;;;;;;;;;5062973;28;20203;-65
2023/12/03 00:41:53;;;;;;;27.37;18.70;;;;;;;;;;5071286;28;20244;-65
2023/12/03 00:44:21;;;;;;;30.37;19.43;;;;;;;;;;5074148;28;20209;-65
2023/12/03 00:46:48;;;;;;;29.40;19.03;;;;;;;;;;5070199;28;20212;-65
2023/12/03 00:49:15;;;;;;;28.70;18.33;;;;;;;;;;5068126;28;20231;-66
2023/12/03 00:51:42;;;;;;;25.57;17.27;;;;;;;;;;5066657;28;20201;-65
2023/12/03 00:54:09;;;;;;;30.30;19.07;;;;;;;;;;5072176;28;20210;-65
2023/12/03 00:56:36;;;;;;;30.77;18.90;;;;;;;;;;5067375;28;20212;-65
2023/12/03 00:59:05;;;;;;;31.13;18.90;;;;;;;;;;5059050;28;20209;-66
2023/12/03 01:01:32;;;;;;;30.13;18.30;;;;;;;;;;5061207;28;20197;-66
2023/12/03 01:03:59;;;;;;;29.00;18.47;;;;;;;;;;5067893;28;20212;-66
2023/12/03 01:06:26;;;;;;;28.97;18.27;;;;;;;;;;5074831;28;20212;-66
2023/12/03 01:08:53;;;;;;;27.77;18.03;;;;;;;;;;5068621;28;20226;-65
2023/12/03 01:11:20;;;;;;;26.90;17.57;;;;;;;;;;5068284;28;20203;-65
2023/12/03 01:13:47;;;;;;;28.00;18.27;;;;;;;;;;5076041;28;20241;-65
2023/12/03 01:16:17;;;;;;;27.37;17.93;;;;;;;;;;5071040;28;20216;-66
2023/12/03 01:18:44;;;;;;;27.30;17.47;;;;;;;;;;5073532;28;20205;-65
2023/12/03 01:21:11;;;;;;;29.47;19.27;;;;;;;;;;5070591;28;20201;-65
2023/12/03 01:23:38;;;;;;;25.97;17.57;;;;;;;;;;5074708;28;20208;-65
2023/12/03 01:26:06;;;;;;;30.80;18.87;;;;;;;;;;5067659;28;20206;-67
2023/12/03 01:28:33;;;;;;;29.63;18.43;;;;;;;;;;5065212;28;20218;-65
2023/12/03 01:31:00;;;;;;;29.57;18.43;;;;;;;;;;5069393;28;20206;-65
2023/12/03 01:33:28;;;;;;;29.83;18.60;;;;;;;;;;5066783;28;20214;-65
2023/12/03 01:35:56;;;;;;;29.10;18.53;;;;;;;;;;5066789;28;20210;-66
2023/12/03 01:38:23;;;;;;;31.17;19.23;;;;;;;;;;5064687;28;20196;-65
2023/12/03 01:40:53;;;;;;;26.80;17.30;;;;;;;;;;5069721;28;20206;-66
2023/12/03 01:43:20;;;;;;;28.37;18.13;;;;;;;;;;5064394;28;20229;-66
2023/12/03 01:45:48;;;;;;;27.17;18.27;;;;;;;;;;5065565;28;20212;-65
2023/12/03 01:48:16;;;;;;;26.00;17.40;;;;;;;;;;5063775;28;20217;-65
2023/12/03 01:50:44;;;;;;;31.47;19.13;;;;;;;;;;5065796;28;20212;-65
2023/12/03 01:53:11;;;;;;;30.90;18.97;;;;;;;;;;5070667;28;20818;-67
2023/12/03 01:55:38;;;;;;;30.80;19.30;;;;;;;;;;5066522;28;20209;-65
2023/12/03 01:58:06;;;;;;;31.97;19.00;;;;;;;;;;5064394;28;20206;-67
2023/12/03 02:00:33;;;;;;;36.70;20.13;;;;;;;;;;5067384;28;20205;-65
2023/12/03 02:03:00;;;;;;;32.63;19.93;;;;;;;;;;5068001;28;20202;-65
2023/12/03 02:05:27;;;;;;;32.40;19.40;;;;;;;;;;5066997;28;20210;-70
2023/12/03 02:07:56;;;;;;;30.27;18.67;;;;;;;;;;5056613;28;20230;-70
2023/12/03 02:10:23;;;;;;;32.13;20.00;;;;;;;;;;5065796;28;20203;-70
2023/12/03 02:12:50;;;;;;;32.77;20.13;;;;;;;;;;5063487;28;20210;-70
2023/12/03 02:15:17;;;;;;;32.70;20.03;;;;;;;;;;5067109;28;20201;-70
2023/12/03 02:17:44;;;;;;;37.10;21.13;;;;;;;;;;5065222;28;20213;-71
2023/12/03 02:20:12;;;;;;;34.50;20.47;;;;;;;;;;5068410;28;20214;-71
2023/12/03 02:22:41;;;;;;;33.97;19.90;;;;;;;;;;5072019;28;20201;-72
2023/12/03 02:25:09;;;;;;;35.23;19.43;;;;;;;;;;5073407;28;20209;-71
2023/12/03 02:27:36;;;;;;;37.77;20.97;;;;;;;;;;5070721;28;20205;-72
2023/12/03 02:30:03;;;;;;;38.40;21.60;;;;;;;;;;5065060;28;20205;-71
2023/12/03 02:32:30;;;;;;;40.60;21.03;;;;;;;;;;5068971;28;20204;-70
2023/12/03 02:34:57;;;;;;;35.03;20.53;;;;;;;;;;5065454;28;20234;-71
2023/12/03 02:37:24;;;;;;;35.93;20.53;;;;;;;;;;5070142;28;20208;-71
2023/12/03 02:39:53;;;;;;;41.63;21.70;;;;;;;;;;5070622;28;20209;-71
2023/12/03 02:42:20;;;;;;;40.07;21.63;;;;;;;;;;5066183;28;20237;-72
2023/12/03 02:44:47;;;;;;;40.60;21.70;;;;;;;;;;5065648;28;20210;-71
2023/12/03 02:47:14;;;;;;;36.47;19.73;;;;;;;;;;5071473;28;20208;-71
2023/12/03 02:49:41;;;;;;;36.73;20.37;;;;;;;;;;5061171;28;20221;-71
2023/12/03 02:52:09;;;;;;;36.83;19.60;;;;;;;;;;5063488;28;20205;-71
2023/12/03 02:54:36;;;;;;;38.57;21.23;;;;;;;;;;5061521;28;20332;-71
2023/12/03 02:57:05;;;;;;;41.10;20.57;;;;;;;;;;5063066;28;20210;-71
2023/12/03 02:59:32;;;;;;;41.60;21.40;;;;;;;;;;5064569;28;20218;-71
2023/12/03 03:01:59;;;;;;;37.83;20.63;;;;;;;;;;5058888;28;20207;-70
2023/12/03 03:04:26;;;;;;;39.97;20.90;;;;;;;;;;5068449;28;20220;-71
2023/12/03 03:06:53;;;;;;;38.23;19.93;;;;;;;;;;5060128;28;20206;-71
2023/12/03 03:09:20;;;;;;;39.67;21.37;;;;;;;;;;5063135;28;20219;-72
2023/12/03 03:11:48;;;;;;;37.87;20.77;;;;;;;;;;5065086;28;20198;-72
2023/12/03 03:14:16;;;;;;;38.63;20.47;;;;;;;;;;5066762;28;20297;-65
2023/12/03 03:16:44;;;;;;;41.83;21.87;;;;;;;;;;5067445;28;20216;-65
2023/12/03 03:19:11;;;;;;;39.13;20.50;;;;;;;;;;5060822;28;20224;-65
2023/12/03 03:21:39;;;;;;;37.10;21.50;;;;;;;;;;5061255;28;20210;-65
2023/12/03 03:24:06;;;;;;;39.50;21.53;;;;;;;;;;5072020;28;20264;-66
2023/12/03 03:26:33;;;;;;;37.70;20.07;;;;;;;;;;5067668;28;20198;-65
2023/12/03 03:29:01;;;;;;;36.03;20.20;;;;;;;;;;5063629;28;20223;-65
2023/12/03 03:31:29;;;;;;;39.03;20.73;;;;;;;;;;5065695;28;20208;-64
2023/12/03 03:33:56;;;;;;;40.10;21.37;;;;;;;;;;5065287;28;20198;-65
2023/12/03 03:36:23;;;;;;;40.53;21.70;;;;;;;;;;5069698;28;20199;-65
2023/12/03 03:38:51;;;;;;;41.73;20.83;;;;;;;;;;5063098;28;20203;-65
2023/12/03 03:41:18;;;;;;;34.07;20.07;;;;;;;;;;5063966;28;20191;-65
2023/12/03 03:43:45;;;;;;;40.60;21.90;;;;;;;;;;5062224;28;20203;-65
2023/12/03 03:46:12;;;;;;;34.57;19.97;;;;;;;;;;5064467;28;20212;-65
2023/12/03 03:48:41;;;;;;;36.63;20.50;;;;;;;;;;5056936;28;20233;-65
2023/12/03 03:51:08;;;;;;;38.87;21.00;;;;;;;;;;5059129;28;20206;-66
2023/12/03 03:53:36;;;;;;;39.10;21.73;;;;;;;;;;5064106;28;20206;-65
2023/12/03 03:56:08;;;;;;;35.30;20.43;;;;;;;;;;5059186;28;20202;-65
2023/12/03 03:58:35;;;;;;;34.70;20.53;;;;;;;;;;5068444;28;20252;-65
2023/12/03 04:01:05;;;;;;;37.23;20.53;;;;;;;;;;5064229;28;20209;-65
2023/12/03 04:03:32;;;;;;;40.17;21.80;;;;;;;;;;5068793;28;20258;-64
2023/12/03 04:06:02;;;;;;;34.67;21.07;;;;;;;;;;5067112;28;20225;-64
2023/12/03 04:08:29;;;;;;;40.23;22.07;;;;;;;;;;5065486;28;20217;-64
2023/12/03 04:10:56;;;;;;;36.90;21.33;;;;;;;;;;5062735;28;20206;-64
2023/12/03 04:13:23;;;;;;;35.00;20.57;;;;;;;;;;5065817;28;20207;-64
2023/12/03 04:15:51;;;;;;;32.63;21.00;;;;;;;;;;5062806;28;20298;-65
2023/12/03 04:18:18;;;;;;;32.33;20.03;;;;;;;;;;5070695;28;20205;-64
2023/12/03 04:20:45;;;;;;;35.83;21.67;;;;;;;;;;5066121;28;20207;-64
2023/12/03 04:23:14;;;;;;;31.40;20.37;;;;;;;;;;5068766;28;20206;-65
2023/12/03 04:25:41;;;;;;;31.07;19.33;;;;;;;;;;5065775;28;20212;-66
2023/12/03 04:28:09;;;;;;;29.70;19.40;;;;;;;;;;5067865;28;20229;-65
2023/12/03 04:30:36;;;;;;;31.57;19.67;;;;;;;;;;5064378;28;20210;-64
2023/12/03 04:33:03;;;;;;;32.43;19.60;;;;;;;;;;5059828;28;20214;-65
2023/12/03 04:35:30;;;;;;;32.53;20.37;;;;;;;;;;5063995;28;20194;-64
2023/12/03 04:37:57;;;;;;;31.83;20.37;;;;;;;;;;5064287;28;20198;-64
2023/12/03 04:40:26;;;;;;;33.13;20.97;;;;;;;;;;5064288;28;20298;-65
2023/12/03 04:42:53;;;;;;;30.70;19.43;;;;;;;;;;5063272;28;20245;-65
2023/12/03 04:45:20;;;;;;;32.53;20.90;;;;;;;;;;5064304;28;20248;-65
2023/12/03 04:47:47;;;;;;;31.80;20.23;;;;;;;;;;5065267;28;20203;-65
2023/12/03 04:50:14;;;;;;;30.23;19.23;;;;;;;;;;5065841;28;20512;-66
2023/12/03 04:52:41;;;;;;;34.70;21.23;;;;;;;;;;5063339;28;20220;-64
2023/12/03 04:55:09;;;;;;;31.77;20.20;;;;;;;;;;5062288;28;20213;-65
2023/12/03 04:57:37;;;;;;;31.30;19.43;;;;;;;;;;5062581;28;20203;-63
2023/12/03 05:00:07;;;;;;;27.67;18.70;;;;;;;;;;5061938;28;20207;-64
2023/12/03 05:02:34;;;;;;;33.13;19.97;;;;;;;;;;5057713;28;20207;-64
2023/12/03 05:05:01;;;;;;;32.10;21.07;;;;;;;;;;5058751;28;20203;-65
2023/12/03 05:07:28;;;;;;;32.13;19.47;;;;;;;;;;5060074;28;20207;-66
2023/12/03 05:09:55;;;;;;;31.03;19.90;;;;;;;;;;5066599;28;20224;-65
2023/12/03 05:12:23;;;;;;;29.63;19.00;;;;;;;;;;5060239;28;20292;-64
2023/12/03 05:14:51;;;;;;;30.17;19.50;;;;;;;;;;5069090;28;20202;-64
2023/12/03 05:17:18;;;;;;;30.03;19.27;;;;;;;;;;5066108;28;20213;-64
2023/12/03 05:19:45;;;;;;;34.20;20.03;;;;;;;;;;5065552;28;20210;-65
2023/12/03 05:22:12;;;;;;;32.07;20.10;;;;;;;;;;5063639;28;20202;-65
2023/12/03 05:24:40;;;;;;;31.63;19.17;;;;;;;;;;5064518;28;20211;-64
2023/12/03 05:27:07;;;;;;;29.80;19.73;;;;;;;;;;5067488;28;20209;-65
2023/12/03 05:29:34;;;;;;;27.83;18.50;;;;;;;;;;5062062;28;20222;-66
2023/12/03 05:32:03;;;;;;;30.73;20.30;;;;;;;;;;5064462;28;20207;-65
2023/12/03 05:34:30;;;;;;;29.40;19.43;;;;;;;;;;5063757;28;20195;-64
2023/12/03 05:36:57;;;;;;;33.73;21.00;;;;;;;;;;5068453;28;20217;-64
2023/12/03 05:39:24;;;;;;;30.23;19.70;;;;;;;;;;5067340;28;20226;-64
2023/12/03 05:41:51;;;;;;;34.77;21.50;;;;;;;;;;5059138;28;20223;-64
2023/12/03 05:44:18;;;;;;;28.43;18.50;;;;;;;;;;5067336;28;20199;-65
2023/12/03 05:46:45;;;;;;;28.00;18.57;;;;;;;;;;5064655;28;20656;-64
2023/12/03 05:49:14;;;;;;;29.37;19.23;;;;;;;;;;5064384;28;20230;-64
2023/12/03 05:51:44;;;;;;;26.57;17.37;;;;;;;;;;5067921;28;20234;-64
2023/12/03 05:54:11;;;;;;;29.10;19.13;;;;;;;;;;5064138;28;20204;-64
2023/12/03 05:56:38;;;;;;;26.73;17.80;;;;;;;;;;5061336;28;20215;-64
2023/12/03 05:59:05;;;;;;;27.40;19.13;;;;;;;;;;5060788;28;20198;-64
2023/12/03 06:01:32;;;;;;;33.37;20.57;;;;;;;;;;5059406;28;20199;-64
2023/12/03 06:04:00;;;;;;;33.37;21.77;;;;;;;;;;5068704;28;20211;-64
2023/12/03 06:06:28;;;;;;;31.83;20.33;;;;;;;;;;5066809;28;20203;-66
2023/12/03 06:08:55;;;;;;;30.07;19.73;;;;;;;;;;5071260;28;20213;-64
2023/12/03 06:11:23;;;;;;;27.73;18.17;;;;;;;;;;5064254;28;20209;-64
2023/12/03 06:13:50;;;;;;;28.07;18.30;;;;;;;;;;5065155;28;20228;-64
2023/12/03 06:16:17;;;;;;;29.20;19.10;;;;;;;;;;5062822;28;20199;-64
2023/12/03 06:18:44;;;;;;;27.70;18.67;;;;;;;;;;5065679;28;20199;-65
2023/12/03 06:21:11;;;;;;;29.53;18.47;;;;;;;;;;5068394;28;20438;-64
2023/12/03 06:23:40;;;;;;;28.77;18.37;;;;;;;;;;5061610;28;20198;-64
2023/12/03 06:26:07;;;;;;;27.03;17.77;;;;;;;;;;5064261;28;20414;-64
2023/12/03 06:28:34;;;;;;;29.13;18.50;;;;;;;;;;5066903;28;20234;-64
2023/12/03 06:31:02;;;;;;;26.37;17.47;;;;;;;;;;5068088;28;20231;-65
2023/12/03 06:33:29;;;;;;;29.17;18.40;;;;;;;;;;5067931;28;20207;-64
2023/12/03 06:35:56;;;;;;;27.43;18.17;;;;;;;;;;5066818;28;20485;-64
2023/12/03 06:38:23;;;;;;;25.23;17.30;;;;;;;;;;5064578;28;20197;-66
2023/12/03 06:40:52;;;;;;;28.47;17.23;;;;;;;;;;5066816;28;20230;-64
2023/12/03 06:43:19;;;;;;;27.10;18.07;;;;;;;;;;5066581;28;20235;-69
2023/12/03 06:45:46;;;;;;;25.37;17.57;;;;;;;;;;5067364;28;20294;-70
2023/12/03 06:48:13;;;;;;;26.13;17.77;;;;;;;;;;5068096;28;20285;-70
2023/12/03 06:50:40;;;;;;;28.70;18.63;;;;;;;;;;5064381;28;20360;-70
2023/12/03 06:53:08;;;;;;;25.00;16.83;;;;;;;;;;5062408;28;20221;-70
2023/12/03 06:55:35;;;;;;;26.83;17.93;;;;;;;;;;5064039;28;20203;-69
2023/12/03 06:58:03;;;;;;;29.33;17.87;;;;;;;;;;5063216;28;20307;-69
2023/12/03 07:00:31;;;;;;;28.40;18.17;;;;;;;;;;5064249;28;20215;-69
2023/12/03 07:02:58;;;;;;;28.97;18.40;;;;;;;;;;5059242;28;20281;-69
2023/12/03 07:05:26;;;;;;;28.10;18.13;;;;;;;;;;5063026;28;20201;-70
2023/12/03 07:07:53;;;;;;;26.00;17.17;;;;;;;;;;5058547;28;20202;-69
2023/12/03 07:10:21;;;;;;;29.33;18.60;;;;;;;;;;5067434;28;20226;-68
2023/12/03 07:12:48;;;;;;;27.10;18.00;;;;;;;;;;5063437;28;20205;-69
2023/12/03 07:15:17;;;;;;;26.33;17.27;;;;;;;;;;5063467;28;20202;-69
2023/12/03 07:17:44;;;;;;;25.77;17.93;;;;;;;;;;5059397;28;20195;-68
2023/12/03 07:20:11;;;;;;;26.43;17.80;;;;;;;;;;5058707;28;20191;-69
2023/12/03 07:22:39;;;;;;;28.93;18.60;;;;;;;;;;5059166;28;20202;-69
2023/12/03 07:25:07;;;;;;;29.13;18.93;;;;;;;;;;5069550;28;20202;-69
2023/12/03 07:27:34;;;;;;;27.93;18.00;;;;;;;;;;5060832;28;20211;-69
2023/12/03 07:30:02;;;;;;;25.27;17.13;;;;;;;;;;5060684;28;20222;-69
2023/12/03 07:32:31;;;;;;;28.63;17.57;;;;;;;;;;5056191;28;20202;-69
2023/12/03 07:34:58;;;;;;;26.37;18.27;;;;;;;;;;5060311;28;20199;-68
2023/12/03 07:37:26;;;;;;;25.10;17.33;;;;;;;;;;5064888;28;20233;-69
2023/12/03 07:39:53;;;;;;;25.87;16.97;;;;;;;;;;5051613;28;20242;-68
2023/12/03 07:42:20;;;;;;;23.33;16.77;;;;;;;;;;5049745;28;20238;-69
2023/12/03 07:44:48;;;;;;;26.47;17.13;;;;;;;;;;5048484;28;20222;-69
2023/12/03 07:47:16;;;;;;;27.07;16.93;;;;;;;;;;5051848;28;20195;-68
2023/12/03 07:49:44;;;;;;;26.73;17.07;;;;;;;;;;5046201;28;20222;-69
2023/12/03 07:52:12;;;;;;;26.77;18.20;;;;;;;;;;5048447;28;20211;-68
2023/12/03 07:54:39;;;;;;;28.00;17.13;;;;;;;;;;5045772;28;20402;-68
2023/12/03 07:57:07;;;;;;;26.30;16.93;;;;;;;;;;5049052;28;20191;-68
2023/12/03 07:59:34;;;;;;;25.07;16.70;;;;;;;;;;5046865;28;20229;-69
2023/12/03 08:02:01;;;;;;;24.50;16.73;;;;;;;;;;5048556;28;20246;-68
2023/12/03 08:04:29;;;;;;;25.47;17.23;;;;;;;;;;5049375;28;20203;-64
2023/12/03 08:06:57;;;;;;;27.30;17.67;;;;;;;;;;5049628;28;20203;-65
2023/12/03 08:09:24;;;;;;;27.27;17.53;;;;;;;;;;5048144;28;20447;-64
2023/12/03 08:11:53;;;;;;;27.10;17.03;;;;;;;;;;5049803;28;20203;-65
2023/12/03 08:14:20;;;;;;;23.07;16.00;;;;;;;;;;5046566;28;20221;-64
2023/12/03 08:16:47;;;;;;;27.47;17.30;;;;;;;;;;5049103;28;20217;-64
2023/12/03 08:19:14;;;;;;;27.37;18.27;;;;;;;;;;5047490;28;20202;-65
2023/12/03 08:21:42;;;;;;;27.17;17.80;;;;;;;;;;5049992;28;20203;-64
2023/12/03 08:24:11;;;;;;;27.20;17.77;;;;;;;;;;5050868;28;20207;-64
2023/12/03 08:26:38;;;;;;;25.47;16.87;;;;;;;;;;5052721;28;20324;-64
2023/12/03 08:29:05;;;;;;;25.13;16.50;;;;;;;;;;5053664;28;20203;-65
2023/12/03 08:31:32;;;;;;;24.80;16.33;;;;;;;;;;5050556;28;20246;-64
2023/12/03 08:34:00;;;;;;;24.53;15.97;;;;;;;;;;5052497;28;20209;-65
2023/12/03 08:36:30;;;;;;;22.80;16.73;;;;;;;;;;5049406;28;20211;-66
2023/12/03 08:38:57;;;;;;;23.50;15.70;;;;;;;;;;5052324;28;20335;-65
2023/12/03 08:41:25;;;;;;;25.33;17.10;;;;;;;;;;5050390;28;20215;-66
2023/12/03 08:43:52;;;;;;;26.80;16.73;;;;;;;;;;5053676;28;20207;-64
2023/12/03 08:46:21;;;;;;;25.93;16.60;;;;;;;;;;5057214;28;20361;-64
2023/12/03 08:48:48;;;;;;;23.93;16.57;;;;;;;;;;5059889;28;20296;-64
2023/12/03 08:51:15;;;;;;;26.97;17.50;;;;;;;;;;5053579;28;20221;-65
2023/12/03 08:53:42;;;;;;;25.50;16.13;;;;;;;;;;5053197;28;20218;-64
2023/12/03 08:56:11;;;;;;;25.80;17.70;;;;;;;;;;5054772;28;20202;-64
2023/12/03 08:58:40;;;;;;;24.50;16.17;;;;;;;;;;5052500;28;20203;-64
2023/12/03 09:01:07;;;;;;;24.37;16.97;;;;;;;;;;5052685;28;20210;-64
2023/12/03 09:03:35;;;;;;;26.00;17.53;;;;;;;;;;5056962;28;20207;-65
2023/12/03 09:06:03;;;;;;;24.77;16.47;;;;;;;;;;5058428;28;20208;-65
2023/12/03 09:08:31;;;;;;;25.60;17.33;;;;;;;;;;5055864;28;20203;-66
2023/12/03 09:10:59;;;;;;;25.07;17.07;;;;;;;;;;5059697;28;20245;-65
2023/12/03 09:13:26;;;;;;;25.30;17.27;;;;;;;;;;5050010;28;20310;-64
2023/12/03 09:15:56;;;;;;;23.40;16.17;;;;;;;;;;5048917;28;20284;-63
2023/12/03 09:18:24;;;;;;;22.07;16.27;;;;;;;;;;5053298;28;20206;-65
2023/12/03 09:20:51;;;;;;;26.73;18.33;;;;;;;;;;5050047;28;20313;-64
2023/12/03 09:23:21;;;;;;;25.93;17.57;;;;;;;;;;5051937;28;20272;-65
2023/12/03 09:25:48;;;;;;;25.87;17.17;;;;;;;;;;5052463;28;20213;-65
2023/12/03 09:28:15;;;;;;;25.00;16.57;;;;;;;;;;5051469;28;20229;-65
2023/12/03 09:30:43;;;;;;;26.93;18.33;;;;;;;;;;5051682;28;20213;-65
2023/12/03 09:33:11;;;;;;;25.57;18.00;;;;;;;;;;5053309;28;20210;-66
2023/12/03 09:35:38;;;;;;;24.97;16.67;;;;;;;;;;5051672;28;20325;-65
2023/12/03 09:38:05;;;;;;;25.53;17.37;;;;;;;;;;5051737;28;20261;-66
2023/12/03 09:40:33;;;;;;;24.77;17.43;;;;;;;;;;5048137;28;20206;-65
2023/12/03 09:43:04;;;;;;;26.13;17.67;;;;;;;;;;5053530;28;20246;-64
2023/12/03 09:45:33;;;;;;;23.73;16.90;;;;;;;;;;5054692;28;20293;-65
2023/12/03 09:48:02;;;;;;;24.43;16.23;;;;;;;;;;5054941;28;20208;-64
2023/12/03 09:50:31;;;;;;;26.23;17.33;;;;;;;;;;5052618;28;20321;-65
2023/12/03 09:53:00;;;;;;;25.67;15.93;;;;;;;;;;5052004;28;20202;-65
2023/12/03 09:55:28;;;;;;;24.30;16.10;;;;;;;;;;5052925;28;20219;-64
2023/12/03 09:57:56;;;;;;;20.37;15.20;;;;;;;;;;5056074;28;20218;-64
2023/12/03 10:00:24;;;;;;;22.80;15.93;;;;;;;;;;5055975;28;20226;-65
2023/12/03 10:02:53;;;;;;;22.13;15.20;;;;;;;;;;5053759;28;20207;-64
2023/12/03 10:05:21;;;;;;;22.63;15.40;;;;;;;;;;5050909;28;20218;-64
2023/12/03 10:07:54;;;;;;;19.93;14.77;;;;;;;;;;5054015;28;20659;-64
2023/12/03 10:10:22;;;;;;;21.70;15.03;;;;;;;;;;5052737;28;20215;-64
2023/12/03 10:12:51;;;;;;;20.83;14.87;;;;;;;;;;5052177;28;20211;-64
2023/12/03 10:15:18;;;;;;;22.60;15.43;;;;;;;;;;5054227;28;20202;-64
2023/12/03 10:17:48;;;;;;;23.77;15.90;;;;;;;;;;5054420;28;20220;-64
2023/12/03 10:20:22;;;;;;;22.03;15.70;;;;;;;;;;5055708;28;20206;-64
2023/12/03 10:22:51;;;;;;;21.53;14.80;;;;;;;;;;5051229;28;20215;-63
2023/12/03 10:25:31;;;;;;;21.03;15.13;;;;;;;;;;5054864;28;20212;-66
2023/12/03 10:27:59;;;;;;;19.10;14.40;;;;;;;;;;5055825;28;21194;-64
2023/12/03 10:30:26;;;;;;;18.57;13.57;;;;;;;;;;5051765;28;20218;-65
2023/12/03 10:32:54;;;;;;;20.60;14.20;;;;;;;;;;5057669;28;20199;-64
2023/12/03 10:35:21;;;;;;;19.83;14.33;;;;;;;;;;5062781;28;20207;-63
2023/12/03 10:37:49;;;;;;;19.57;14.73;;;;;;;;;;5060011;28;20210;-64
2023/12/03 10:40:18;;;;;;;22.47;15.00;;;;;;;;;;5057981;28;20230;-64
2023/12/03 10:42:45;;;;;;;20.83;15.20;;;;;;;;;;5060007;28;20294;-63
2023/12/03 10:45:14;;;;;;;20.97;14.83;;;;;;;;;;5060684;28;20203;-63
2023/12/03 10:47:41;;;;;;;18.47;14.17;;;;;;;;;;5064134;28;20207;-63
2023/12/03 10:50:09;;;;;;;17.60;13.70;;;;;;;;;;5062640;28;20246;-64
2023/12/03 10:52:37;;;;;;;18.43;13.50;;;;;;;;;;5065058;28;20202;-63
2023/12/03 10:55:06;;;;;;;18.63;13.93;;;;;;;;;;5062498;28;20234;-63
2023/12/03 10:57:36;;;;;;;18.23;13.87;;;;;;;;;;5065377;28;20201;-63
2023/12/03 11:00:05;;;;;;;17.23;13.00;;;;;;;;;;5060846;28;20198;-63
2023/12/03 11:02:40;;;;;;;18.57;13.43;;;;;;;;;;5061534;28;20248;-63
2023/12/03 11:05:10;;;;;;;16.50;12.13;;;;;;;;;;5064920;28;20206;-63
2023/12/03 11:07:39;;;;;;;16.67;12.57;;;;;;;;;;5066702;28;20206;-64
2023/12/03 11:10:07;;;;;;;16.17;12.17;;;;;;;;;;5066092;28;20203;-62
2023/12/03 11:12:36;;;;;;;16.27;12.27;;;;;;;;;;5060925;28;20272;-63
2023/12/03 11:15:04;;;;;;;15.03;11.77;;;;;;;;;;5058197;28;20207;-63
2023/12/03 11:17:34;;;;;;;14.97;11.97;;;;;;;;;;5061068;28;20199;-63
2023/12/03 11:20:05;;;;;;;18.17;13.80;;;;;;;;;;5058066;28;20207;-63
2023/12/03 11:22:38;;;;;;;16.60;12.53;;;;;;;;;;5064042;28;20198;-64
2023/12/03 11:25:08;;;;;;;15.70;12.03;;;;;;;;;;5059997;28;20206;-64
2023/12/03 11:27:37;;;;;;;15.60;11.67;;;;;;;;;;5069557;28;20195;-63
2023/12/03 11:30:04;;;;;;;15.10;11.43;;;;;;;;;;5063108;28;20199;-62
2023/12/03 11:32:31;;;;;;;16.60;12.63;;;;;;;;;;5063482;28;20223;-63
2023/12/03 11:35:02;;;;;;;14.60;11.37;;;;;;;;;;5058998;28;20393;-68
2023/12/03 11:37:29;;;;;;;17.27;12.77;;;;;;;;;;5062666;28;20199;-68
2023/12/03 11:39:57;;;;;;;17.87;12.93;;;;;;;;;;5062035;28;20195;-68
2023/12/03 11:42:25;;;;;;;16.70;12.90;;;;;;;;;;5058819;28;20229;-69
2023/12/03 11:45:13;;;;;;;18.40;13.63;;;;;;;;;;5060715;28;20206;-68
2023/12/03 11:47:44;;;;;;;21.43;14.77;;;;;;;;;;5061637;28;20216;-68
2023/12/03 11:50:12;;;;;;;16.63;12.73;;;;;;;;;;5062548;28;20209;-68
2023/12/03 11:52:39;;;;;;;19.30;13.70;;;;;;;;;;5064909;28;20227;-68
2023/12/03 11:55:07;;;;;;;16.30;13.20;;;;;;;;;;5063621;28;20205;-68
2023/12/03 11:57:35;;;;;;;14.40;11.27;;;;;;;;;;5062579;28;20199;-68
2023/12/03 12:00:06;;;;;;;14.10;11.03;;;;;;;;;;5062122;28;20207;-68
2023/12/03 12:02:33;;;;;;;14.67;10.77;;;;;;;;;;5063585;28;20281;-67
2023/12/03 12:05:05;;;;;;;15.83;11.73;;;;;;;;;;5062396;28;20216;-68
2023/12/03 12:07:32;;;;;;;14.47;11.63;;;;;;;;;;5059611;28;20202;-68
2023/12/03 12:09:59;;;;;;;16.67;12.67;;;;;;;;;;5056017;28;20210;-68
2023/12/03 12:12:26;;;;;;;15.63;11.77;;;;;;;;;;5058009;28;20227;-68
2023/12/03 12:14:53;;;;;;;15.73;10.83;;;;;;;;;;5062246;28;20203;-68
2023/12/03 12:17:20;;;;;;;14.83;10.93;;;;;;;;;;5059483;28;20209;-68
2023/12/03 12:19:47;;;;;;;15.20;11.50;;;;;;;;;;5061718;28;20200;-69
2023/12/03 12:22:16;;;;;;;16.27;11.73;;;;;;;;;;5063651;28;20204;-68
2023/12/03 12:24:45;;;;;;;14.53;10.97;;;;;;;;;;5062411;28;20194;-68
2023/12/03 12:27:12;;;;;;;15.00;11.30;;;;;;;;;;5063396;28;20287;-68
2023/12/03 12:29:40;;;;;;;16.27;11.97;;;;;;;;;;5067357;28;20203;-68
2023/12/03 12:32:07;;;;;;;17.20;11.70;;;;;;;;;;5059521;28;20215;-68
2023/12/03 12:34:34;;;;;;;13.17;10.33;;;;;;;;;;5065510;28;20195;-68
2023/12/03 12:37:05;;;;;;;14.00;10.27;;;;;;;;;;5067414;28;20214;-67
2023/12/03 12:39:34;;;;;;;12.23;10.03;;;;;;;;;;5067774;28;20198;-68
2023/12/03 12:42:01;;;;;;;13.03;9.70;;;;;;;;;;5063289;28;20234;-68
2023/12/03 12:44:39;;;;;;;13.30;10.40;;;;;;;;;;5063028;28;20199;-68
2023/12/03 12:47:06;;;;;;;10.73;9.10;;;;;;;;;;5057209;28;20214;-68
2023/12/03 12:49:33;;;;;;;13.00;9.87;;;;;;;;;;5060632;28;20347;-68
2023/12/03 12:52:10;;;;;;;11.67;9.33;;;;;;;;;;5059354;28;20238;-67
2023/12/03 12:54:45;;;;;;;12.20;9.27;;;;;;;;;;5062465;28;20205;-68
2023/12/03 12:57:12;;;;;;;13.43;9.83;;;;;;;;;;5064560;28;20210;-68
2023/12/03 12:59:40;;;;;;;12.30;9.33;;;;;;;;;;5065139;28;20214;-68
2023/12/03 13:02:07;;;;;;;11.33;8.93;;;;;;;;;;5061767;28;20294;-68
2023/12/03 13:04:35;;;;;;;11.87;9.30;;;;;;;;;;5059547;28;20207;-68
2023/12/03 13:07:03;;;;;;;11.03;8.50;;;;;;;;;;5062363;28;20203;-67
2023/12/03 13:09:30;;;;;;;12.80;10.10;;;;;;;;;;5060109;28;20207;-68
2023/12/03 13:11:58;;;;;;;16.13;11.23;;;;;;;;;;5063978;28;20251;-68
2023/12/03 13:14:25;;;;;;;12.23;9.80;;;;;;;;;;5060124;28;20203;-68
2023/12/03 13:16:54;;;;;;;12.73;9.80;;;;;;;;;;5051406;28;20284;-68
2023/12/03 13:19:22;;;;;;;12.50;9.23;;;;;;;;;;5051045;28;20258;-69
2023/12/03 13:21:49;;;;;;;10.13;8.47;;;;;;;;;;5050806;28;20207;-68
2023/12/03 13:24:16;;;;;;;11.57;9.17;;;;;;;;;;5052455;28;20214;-69
2023/12/03 13:26:43;;;;;;;11.57;8.70;;;;;;;;;;5053420;28;20214;-68
2023/12/03 13:29:12;;;;;;;10.33;8.77;;;;;;;;;;5052087;28;20293;-68
2023/12/03 13:31:39;;;;;;;11.57;9.20;;;;;;;;;;5054698;28;20225;-68
2023/12/03 13:34:08;;;;;;;13.57;9.60;;;;;;;;;;5050361;28;20207;-68
2023/12/03 13:36:35;;;;;;;13.70;9.47;;;;;;;;;;5052431;28;20230;-68
2023/12/03 13:39:03;;;;;;;12.37;9.97;;;;;;;;;;5051548;28;20238;-68
2023/12/03 13:41:31;;;;;;;11.87;9.37;;;;;;;;;;5054523;28;20199;-68
2023/12/03 13:43:58;;;;;;;10.77;8.77;;;;;;;;;;5057092;28;20209;-68
2023/12/03 13:46:27;;;;;;;13.23;10.03;;;;;;;;;;5057842;28;20203;-68
2023/12/03 13:48:54;;;;;;;11.57;9.03;;;;;;;;;;5054818;28;20203;-68
2023/12/03 13:51:22;;;;;;;12.50;9.53;;;;;;;;;;5050183;28;20206;-68
2023/12/03 13:53:50;;;;;;;12.50;9.57;;;;;;;;;;5051155;28;20211;-64
2023/12/03 13:56:17;;;;;;;13.70;10.13;;;;;;;;;;5052647;28;20227;-65
2023/12/03 13:58:44;;;;;;;13.77;10.03;;;;;;;;;;5053066;28;20210;-65
2023/12/03 14:01:12;;;;;;;13.47;9.33;;;;;;;;;;5053422;28;20227;-64
2023/12/03 14:03:41;;;;;;;11.67;9.27;;;;;;;;;;5056269;28;20502;-64
2023/12/03 14:06:09;;;;;;;204.70;127.57;;;;;;;;;;5054999;28;20236;-64
2023/12/03 14:08:36;;;;;;;46.17;31.93;;;;;;;;;;5057825;28;20207;-65
2023/12/03 14:11:03;;;;;;;43.20;29.77;;;;;;;;;;5055142;28;20209;-63
2023/12/03 14:13:30;;;;;;;31.33;20.53;;;;;;;;;;5053218;28;20241;-65
2023/12/03 14:15:57;;;;;;;63.37;37.00;;;;;;;;;;5052925;28;20249;-64
2023/12/03 14:18:24;;;;;;;27.90;16.33;;;;;;;;;;5054614;28;20207;-63
2023/12/03 14:20:53;;;;;;;25.20;18.03;;;;;;;;;;5053948;28;20206;-63